Meteo Giornale » Osservazioni meteo Italia » Lecce

ore: 22:55 - Osservazioni Meteo Lecce
Lat. 40° 14' N Lon. 18° 9' E Alt. 48 metri s.l.m.

sereno Europe/Rome

23 °C

Sereno

Temp. 24 Ore

19 °C

31 °C

Ovest/Nord-Ovest

7.4 Km/h

Dew point 21 °C

Umidità 88 %

Visibilità  10 Km

Il sole sorge alle ore 05:58

Il sole tramonta alle ore 19:44

Data e Ora Cielo e Fenomeni T °C DP °C Um. % Pres. hPa Vis. km Vento km/h
Oggi h: 22:55 sereno Sereno 23 21 88 1014 10 O/NO 7.4
Oggi h: 21:55 sereno Sereno 25 21 78 1014 10 N 14.8
Oggi h: 20:55 sereno Sereno 25 21 78 1014 10 N/NO 13
Oggi h: 19:55 sereno Sereno 28 20 61 1014 10 N/NO 16.7
Oggi h: 18:55 sereno Sereno 30 19 51 1014 10 N/NO 16.7
Oggi h: 17:55 sereno Sereno 31 20 52 1014 10 N/NO 18.5
Oggi h: 16:55 sereno Sereno 31 19 48 1014 10 N 20.3
Oggi h: 15:55 sereno Sereno 30 19 51 1014 10 N/NE 24
Oggi h: 14:55 sereno Sereno 30 21 58 1015 10 N 24
Oggi h: 13:55 sereno Sereno 31 20 52 1015 10 N/NE 27.8
Oggi h: 12:55 sereno Sereno 30 21 58 1015 10 N/NE 27.8
Oggi h: 11:55 sereno Sereno 29 22 66 1015 10 N 27.8
Oggi h: 10:55 sereno Sereno 29 24 74 1015 10 N 25.9
Oggi h: 08:55 sereno Sereno 27 24 83 1015 10 N 29.6
Oggi h: 07:55 sereno Sereno 24 22 88 1015 10 NO 7.4
Oggi h: 06:55 sereno Sereno 20 19 93 1015 10 O/NO 7.4
Oggi h: 05:55 poco_nuvoloso Poco Nuvoloso 19 19 100 1015 10 O 7.4
Oggi h: 04:55 sereno Sereno 19 18 93 1015 10 N 5.5
Oggi h: 02:55 sereno Sereno 20 19 93 1016 10 N 3.7
Oggi h: 01:55 sereno Sereno 20 19 93 1016 10 O/NO 7.4
Oggi h: 00:55 sereno Sereno 22 20 88 1016 10 O/NO 9.3
Ieri h: 23:55 sereno Sereno 22 20 88 1017 10 NO 9.3